Brownstown Township, Michigan
Current Conditions -  °F | °C
As of 6:53 PM on Saturday 25 Oct 2014 (Local Time) from KDTW Reporting Station
Few Clouds Few Clouds  
Wind Chill: 63°   Ceiling: Unl
Heat Index: 63°   Visibility: 10mi
Dew Point: 28°   Wind: 22mph
Humidity: 27%   Direction: 260°W
Pressure: 29.77"   Gusts: 31mph
Location:  42.1166°N, 83.4023°W
Report Text: KDTW 252253Z 26019G27KT 10SM FEW100 17/M02 A2977 RMK AO2 PK WND 27033/2219 SLP082 T01721022
Loading
Personal Weather Stations






























Interactive Weather Map
Tropical Storm Tracking
New forecast layout! Learn more

10-Day Weather Forecast

Advertisements
Track Severe Weather on mobile